Terminal Aerodrome Forecast
Issued by NWS Grand Forks, ND

Home | Current Version | Previous Version | Graphics & Text | Print | Product List | Glossary On
Versions: 1 2 3 4 5 6 7 8 9 10 11 12 13 14 15 16 17 18 19
428
FTUS43 KFGF 192320
TAFFAR
TAF
KFAR 192320Z 2000/2024 12018G27KT P6SM VCTS SCT025CB
     FM200030 15020G31KT P6SM +TSRAGS OVC025CB
     FM200200 16020G29KT 5SM +SHRA OVC035
     FM200400 17016G25KT P6SM OVC040
     FM200800 24007KT P6SM BKN070
     FM201700 25012KT P6SM FEW250
     FM202200 22011KT P6SM SKC=

USA.gov is the U.S. government's official web portal to all federal, state and local government web resources and services.